Marysville/Beale AFB, California
Current Conditions -  °F | °C
As of 5:58 PM on Friday 21 Nov 2014 (Local Time) from KBAB Reporting Station
Overcast Overcast  
Wind Chill: 54°   Ceiling: 6000
Heat Index: 54°   Visibility: 10mi
Dew Point: 54°   Wind: 5mph
Humidity: 99%   Direction: 150°SSE
Pressure: 30.1"   Gusts: NA
Location:  39.13°N, 121.45°W
Report Text: KBAB 220158Z 15004KT 10SM BKN060 BKN100 OVC140 12/12 A3010 RMK AO2A VIS 2 RWY33 SLP270 T01230122 $
Loading
Personal Weather Stations






























Interactive Weather Map New forecast layout! Learn more

10-Day Weather Forecast

Advertisements
Track Severe Weather on mobile